Time;durP1;ratioP1;P1;durP2;ratioP2;P2;SDS_P1;SDS_P2;PMS_P1;PMS_P2;Temp;Humidity;BMP_temperature;BMP_pressure;BME280_temperature;BME280_humidity;BME280_pressure;Samples;Min_cycle;Max_cycle;Signal;HPM_P1;HPM_P2
2021/12/24 00:01:54;;;;;;;4.63;3.30;;;;;;;5.17;96.21;99375.25;5009253;28;20219;-80
2021/12/24 00:04:22;;;;;;;4.67;4.00;;;;;;;5.17;96.01;99380.53;5011621;28;20306;-80
2021/12/24 00:06:48;;;;;;;4.30;3.27;;;;;;;5.16;96.40;99379.69;5011323;28;20261;-80
2021/12/24 00:09:21;;;;;;;5.23;4.07;;;;;;;5.15;96.23;99371.88;5010193;28;20231;-80
2021/12/24 00:11:48;;;;;;;3.77;3.37;;;;;;;5.16;96.15;99381.47;5012176;28;20204;-80
2021/12/24 00:14:15;;;;;;;3.43;3.07;;;;;;;5.15;96.23;99378.00;5013535;28;20207;-79
2021/12/24 00:16:46;;;;;;;3.90;3.17;;;;;;;5.16;96.18;99378.84;5011901;28;20203;-80
2021/12/24 00:19:18;;;;;;;3.50;2.93;;;;;;;5.16;96.20;99374.41;5014293;28;20234;-79
2021/12/24 00:35:31;;;;;;;3.13;2.70;;;;;;;5.23;96.61;99344.03;5009449;28;21155;-79
2021/12/24 00:38:01;;;;;;;2.73;2.50;;;;;;;5.23;96.57;99348.47;5010986;28;20242;-79
2021/12/24 00:40:29;;;;;;;3.03;2.73;;;;;;;5.22;96.74;99352.91;5007640;28;20202;-81
2021/12/24 00:42:57;;;;;;;3.70;2.70;;;;;;;5.24;96.56;99344.88;5009897;28;20664;-79
2021/12/24 00:45:26;;;;;;;4.33;2.83;;;;;;;5.24;96.75;99337.81;5008877;28;20297;-79
2021/12/24 00:47:54;;;;;;;2.87;2.67;;;;;;;5.26;96.42;99336.88;5007544;28;20231;-80
2021/12/24 00:50:25;;;;;;;3.20;2.90;;;;;;;5.28;96.59;99333.19;5007865;28;20203;-80
2021/12/24 00:52:57;;;;;;;3.17;2.87;;;;;;;5.29;96.99;99332.25;5008266;28;20203;-80
2021/12/24 00:55:25;;;;;;;3.07;2.77;;;;;;;5.30;97.32;99330.47;5009270;28;20571;-80
2021/12/24 00:57:56;;;;;;;3.50;3.20;;;;;;;5.33;96.92;99336.41;5012939;28;20251;-80
2021/12/24 01:00:24;;;;;;;3.17;2.70;;;;;;;5.33;96.90;99330.28;5016722;28;20658;-79
2021/12/24 01:02:53;;;;;;;3.00;2.80;;;;;;;5.34;96.82;99330.19;5063955;22;20232;-71
2021/12/24 01:05:21;;;;;;;3.20;2.90;;;;;;;5.34;96.94;99322.28;5047015;28;20210;-71
2021/12/24 01:07:49;;;;;;;2.87;2.60;;;;;;;5.36;97.02;99330.09;5051211;28;20198;-72
2021/12/24 01:10:19;;;;;;;3.40;3.10;;;;;;;5.37;97.36;99322.09;5038360;28;20242;-72
2021/12/24 01:12:46;;;;;;;2.67;2.13;;;;;;;5.38;97.12;99310.53;5024872;28;20206;-72
2021/12/24 01:15:15;;;;;;;2.60;2.40;;;;;;;5.39;97.34;99321.97;5023116;28;20209;-73
2021/12/24 01:17:47;;;;;;;2.93;2.60;;;;;;;5.40;96.98;99313.94;5039724;22;20230;-82
2021/12/24 01:20:24;;;;;;;2.20;2.00;;;;;;;5.41;97.26;99314.78;5040409;28;20237;-82
2021/12/24 01:25:51;;;;;;;2.07;1.87;;;;;;;5.45;97.38;99311.00;5042271;28;20202;-80
2021/12/24 01:28:38;;;;;;;2.10;1.90;;;;;;;5.47;97.13;99319.69;5039419;28;20226;-80
2021/12/24 01:39:54;;;;;;;1.87;1.73;;;;;;;5.48;98.60;99316.09;4958222;29;20232;-81
2021/12/24 01:42:42;;;;;;;2.37;2.07;;;;;;;5.51;97.92;99321.19;4958460;29;20304;-81
2021/12/24 01:45:18;;;;;;;1.97;1.77;;;;;;;5.51;98.22;99300.94;5014464;28;20668;-82
2021/12/24 01:47:46;;;;;;;2.90;2.30;;;;;;;5.53;98.28;99308.75;5039312;28;20186;-82
2021/12/24 01:50:14;;;;;;;1.90;1.60;;;;;;;5.56;98.18;99313.81;5026038;28;20298;-79
2021/12/24 01:52:41;;;;;;;1.77;1.67;;;;;;;5.57;98.53;99316.34;5030787;28;20703;-80
2021/12/24 01:55:09;;;;;;;2.20;2.00;;;;;;;5.62;98.38;99309.94;5039822;28;20340;-80
2021/12/24 01:57:36;;;;;;;1.50;1.40;;;;;;;5.62;98.07;99305.50;5040441;28;20213;-81
2021/12/24 02:00:09;;;;;;;2.00;1.40;;;;;;;5.65;98.28;99296.53;5041116;28;20206;-80
2021/12/24 02:02:35;;;;;;;2.20;1.47;;;;;;;5.67;98.23;99302.56;5023452;28;20232;-80
2021/12/24 02:05:04;;;;;;;1.40;1.30;;;;;;;5.68;98.63;99293.72;5039967;28;20553;-80
2021/12/24 02:07:31;;;;;;;1.63;1.30;;;;;;;5.70;98.55;99292.66;5041045;28;20655;-80
2021/12/24 02:09:58;;;;;;;1.53;1.33;;;;;;;5.73;98.45;99291.63;5029852;28;20301;-81
2021/12/24 02:12:25;;;;;;;1.53;1.30;;;;;;;5.76;98.21;99283.47;5021340;28;20231;-80
2021/12/24 02:14:56;;;;;;;1.77;1.20;;;;;;;5.77;98.29;99286.00;5025783;28;20206;-80
2021/12/24 02:17:45;;;;;;;1.07;0.97;;;;;;;5.81;98.29;99271.66;5041026;28;20688;-80
2021/12/24 02:28:36;;;;;;;0.90;0.87;;;;;;;5.86;98.83;99266.09;5039544;28;20209;-81
2021/12/24 02:31:04;;;;;;;1.17;1.03;;;;;;;5.88;98.47;99258.91;5038858;28;20211;-79
2021/12/24 02:33:31;;;;;;;0.80;0.80;;;;;;;5.89;98.49;99261.47;5038925;28;20755;-80
2021/12/24 02:35:59;;;;;;;1.20;0.70;;;;;;;5.89;98.76;99261.47;5038744;28;20202;-80
2021/12/24 02:38:25;;;;;;;1.00;0.80;;;;;;;5.91;98.65;99262.19;5039063;28;20668;-79
2021/12/24 02:40:52;;;;;;;0.93;0.87;;;;;;;5.95;98.54;99254.06;5038479;28;20652;-80
2021/12/24 02:43:21;;;;;;;1.50;0.93;;;;;;;5.96;98.83;99259.25;5038503;28;20244;-80
2021/12/24 02:45:50;;;;;;;1.10;1.00;;;;;;;5.96;98.64;99251.34;5038217;28;20233;-80
2021/12/24 02:48:48;;;;;;;1.40;1.30;;;;;;;5.99;98.83;99252.94;5038693;28;20446;-80
2021/12/24 02:53:59;;;;;;;2.20;1.93;;;;;;;6.02;98.72;99250.94;5038001;28;20278;-80
2021/12/24 02:56:29;;;;;;;1.47;1.37;;;;;;;6.04;98.40;99234.97;5039338;28;20213;-79
2021/12/24 02:58:58;;;;;;;1.33;1.10;;;;;;;6.07;98.54;99240.06;5024646;28;20222;-81
2021/12/24 03:01:26;;;;;;;1.40;1.00;;;;;;;6.09;98.50;99240.81;5038774;28;20702;-80
2021/12/24 03:03:53;;;;;;;2.10;0.90;;;;;;;6.10;98.94;99237.19;5038922;28;20206;-80
2021/12/24 03:06:26;;;;;;;1.93;1.10;;;;;;;6.12;99.03;99237.94;5038548;28;20206;-80
2021/12/24 03:08:52;;;;;;;0.90;0.90;;;;;;;6.14;98.70;99226.31;5038121;28;20277;-80
2021/12/24 03:11:19;;;;;;;1.03;0.93;;;;;;;6.16;98.92;99221.78;5036974;28;20586;-80
2021/12/24 03:13:46;;;;;;;1.80;1.57;;;;;;;6.16;98.93;99221.78;5044936;28;20212;-80
2021/12/24 03:16:13;;;;;;;2.10;1.90;;;;;;;6.19;98.90;99220.72;5042937;28;20293;-80
2021/12/24 03:18:42;;;;;;;2.63;2.23;;;;;;;6.19;98.59;99218.94;5042053;28;20240;-81
2021/12/24 03:21:14;;;;;;;3.03;2.73;;;;;;;6.20;98.49;99220.63;5043436;28;20237;-80
2021/12/24 03:23:45;;;;;;;2.80;2.60;;;;;;;6.21;98.68;99211.75;5029355;28;20198;-79
2021/12/24 03:26:13;;;;;;;3.33;2.67;;;;;;;6.23;99.00;99209.84;5042558;28;20194;-81
2021/12/24 03:28:41;;;;;;;3.90;2.90;;;;;;;6.22;98.82;99199.38;5049711;28;20584;-82
2021/12/24 03:31:08;;;;;;;3.50;3.07;;;;;;;6.24;99.16;99198.31;5042195;28;20208;-82
2021/12/24 03:33:37;;;;;;;4.17;3.03;;;;;;;6.27;99.31;99197.22;5042542;28;20210;-80
2021/12/24 03:36:05;;;;;;;4.13;3.00;;;;;;;6.27;99.06;99197.22;5043720;28;20198;-80
2021/12/24 03:38:32;;;;;;;3.20;2.93;;;;;;;6.30;99.15;99193.53;5042293;28;20226;-80
2021/12/24 03:41:00;;;;;;;3.03;2.67;;;;;;;6.33;98.97;99193.34;5043699;28;20202;-80
2021/12/24 03:43:27;;;;;;;4.60;2.90;;;;;;;6.33;98.93;99182.75;5042306;28;20236;-80
2021/12/24 03:46:00;;;;;;;4.37;2.93;;;;;;;6.34;99.21;99195.03;5042870;28;20206;-80
2021/12/24 03:48:40;;;;;;;7.33;3.80;;;;;;;6.37;98.94;99189.53;5041910;28;20194;-80
2021/12/24 03:51:24;;;;;;;4.57;4.00;;;;;;;6.38;99.53;99184.13;5041846;28;20222;-80
2021/12/24 03:56:37;;;;;;;3.20;2.90;;;;;;;6.39;99.53;99179.69;5043610;28;20611;-79
2021/12/24 03:59:05;;;;;;;2.97;2.70;;;;;;;6.41;99.71;99183.09;5042856;28;20225;-80
2021/12/24 04:01:32;;;;;;;2.80;2.60;;;;;;;6.44;99.86;99185.53;5042539;28;20232;-80
2021/12/24 04:03:58;;;;;;;4.37;3.77;;;;;;;6.45;99.55;99184.56;5042103;28;20229;-81
2021/12/24 04:06:25;;;;;;;3.67;3.37;;;;;;;6.48;99.11;99186.97;5042229;28;20299;-81
2021/12/24 04:08:52;;;;;;;4.67;4.17;;;;;;;6.47;99.38;99177.34;5043469;28;20202;-80
2021/12/24 04:11:18;;;;;;;4.30;4.00;;;;;;;6.51;99.69;99170.91;5042534;28;20206;-81
2021/12/24 04:13:46;;;;;;;4.77;4.00;;;;;;;6.53;99.38;99169.00;5043442;28;20210;-81
2021/12/24 04:16:13;;;;;;;5.90;4.87;;;;;;;6.53;99.37;99172.47;5042833;28;20288;-81
2021/12/24 04:18:47;;;;;;;6.60;5.80;;;;;;;6.57;99.14;99175.75;5043015;28;20632;-80
2021/12/24 04:26:42;;;;;;;4.67;4.17;;;;;;;6.63;99.41;99167.38;5041524;28;20269;-81
2021/12/24 04:29:10;;;;;;;3.43;3.13;;;;;;;6.65;99.89;99175.22;5039013;28;20199;-81
2021/12/24 04:31:42;;;;;;;3.70;3.40;;;;;;;6.67;99.91;99168.84;5040139;28;20309;-80
2021/12/24 04:34:10;;;;;;;2.93;2.57;;;;;;;6.67;99.56;99160.91;5040467;28;20191;-79
2021/12/24 04:36:52;;;;;;;2.57;2.37;;;;;;;6.67;99.65;99163.56;5041485;28;20233;-80
2021/12/24 05:01:09;;;;;;;2.40;1.70;;;;;;;6.74;100.00;99143.66;5039647;28;20707;-81
2021/12/24 05:01:35;;;;;;;5.13;3.43;;;;;;;6.78;100.00;99157.53;5019346;28;20273;-80
2021/12/24 05:04:04;;;;;;;3.13;2.83;;;;;;;6.80;99.96;99155.63;5019491;28;20187;-80
2021/12/24 05:06:35;;;;;;;2.93;2.30;;;;;;;6.83;100.00;99156.22;5019573;28;20241;-80
2021/12/24 05:09:09;;;;;;;4.73;3.50;;;;;;;6.86;100.00;99155.16;5019724;28;20234;-80
2021/12/24 05:11:36;;;;;;;4.87;4.33;;;;;;;6.89;99.99;99161.09;5019409;28;20230;-80
2021/12/24 05:14:04;;;;;;;5.60;4.53;;;;;;;6.89;100.00;99155.78;5020194;28;20270;-81
2021/12/24 05:16:43;;;;;;;5.07;4.67;;;;;;;6.92;100.00;99154.75;5019997;28;20209;-79
2021/12/24 05:21:54;;;;;;;7.63;5.70;;;;;;;6.95;100.00;99157.16;5019876;28;20273;-80
2021/12/24 05:24:23;;;;;;;7.50;6.67;;;;;;;6.96;100.00;99161.50;5019450;28;20207;-79
2021/12/24 05:26:53;;;;;;;8.13;6.83;;;;;;;6.99;100.00;99160.44;5020480;28;20247;-80
2021/12/24 05:29:20;;;;;;;9.07;7.30;;;;;;;7.00;100.00;99160.31;5020330;28;20293;-80
2021/12/24 05:31:48;;;;;;;8.20;7.33;;;;;;;7.01;100.00;99164.66;5020631;28;20226;-80
2021/12/24 05:34:17;;;;;;;7.70;6.73;;;;;;;7.03;100.00;99168.03;5020750;28;20297;-80
2021/12/24 05:36:44;;;;;;;8.10;6.83;;;;;;;7.05;100.00;99170.56;5021745;28;20246;-80
2021/12/24 05:39:10;;;;;;;7.20;6.47;;;;;;;7.07;100.00;99171.31;5021183;28;20234;-80
2021/12/24 05:41:37;;;;;;;7.47;6.03;;;;;;;7.05;100.00;99155.53;5022217;28;20254;-81
2021/12/24 05:44:04;;;;;;;7.53;6.13;;;;;;;7.07;100.00;99155.41;5020434;28;20207;-78
2021/12/24 05:46:31;;;;;;;7.43;5.50;;;;;;;7.09;100.00;99161.44;5020855;28;20219;-81
2021/12/24 05:48:59;;;;;;;5.67;4.87;;;;;;;7.10;100.00;99160.50;5021718;28;20266;-79
2021/12/24 05:51:26;;;;;;;5.50;4.90;;;;;;;7.10;100.00;99163.16;5021007;28;20381;-81
2021/12/24 05:53:52;;;;;;;5.83;4.67;;;;;;;7.14;100.00;99159.31;5036581;28;20220;-81
2021/12/24 05:56:19;;;;;;;6.43;5.10;;;;;;;7.17;100.00;99162.56;5033837;28;20225;-81
2021/12/24 05:58:46;;;;;;;6.73;5.40;;;;;;;7.18;100.00;99151.03;5039563;28;20205;-81
2021/12/24 06:01:12;;;;;;;12.73;7.67;;;;;;;7.18;100.00;99140.44;5040020;28;20203;-81
2021/12/24 06:03:39;;;;;;;8.60;6.27;;;;;;;7.22;100.00;99151.66;5041077;28;20202;-80
2021/12/24 06:06:07;;;;;;;10.77;7.93;;;;;;;7.26;100.00;99153.97;5040293;28;20293;-81
2021/12/24 06:08:33;;;;;;;10.97;8.20;;;;;;;7.29;100.00;99160.84;5027658;28;20220;-80
2021/12/24 06:11:00;;;;;;;7.20;6.07;;;;;;;7.31;100.00;99166.88;5039891;28;20562;-81
2021/12/24 06:13:28;;;;;;;7.33;6.13;;;;;;;7.34;100.00;99164.00;5039584;28;20246;-81
2021/12/24 06:15:55;;;;;;;6.40;5.20;;;;;;;7.35;100.00;99164.81;5039975;28;20221;-81
2021/12/24 06:18:24;;;;;;;7.27;5.53;;;;;;;7.36;100.00;99166.50;5038929;28;20228;-80
2021/12/24 06:21:00;;;;;;;6.27;4.90;;;;;;;7.38;100.00;99170.75;5041678;28;20225;-82
2021/12/24 06:23:28;;;;;;;5.93;4.53;;;;;;;7.41;100.00;99161.72;5041726;28;20237;-80
2021/12/24 06:25:58;;;;;;;6.60;5.10;;;;;;;7.41;100.00;99165.22;5028468;28;20217;-81
2021/12/24 06:28:28;;;;;;;5.77;5.17;;;;;;;7.45;100.00;99163.22;5037792;28;20202;-79
2021/12/24 06:30:55;;;;;;;5.90;4.90;;;;;;;7.46;100.00;99160.44;5039657;28;20286;-80
2021/12/24 06:33:22;;;;;;;6.10;4.47;;;;;;;7.48;100.00;99169.13;5040035;28;20316;-79
2021/12/24 06:35:48;;;;;;;5.63;4.50;;;;;;;7.49;100.00;99159.38;5039757;28;20292;-80
2021/12/24 06:38:15;;;;;;;10.30;6.40;;;;;;;7.51;100.00;99171.56;5039630;28;20206;-79
2021/12/24 06:40:43;;;;;;;5.70;4.50;;;;;;;7.53;100.00;99172.25;5040707;28;20228;-80
2021/12/24 06:43:10;;;;;;;5.23;3.87;;;;;;;7.55;100.00;99165.03;5040424;28;20234;-79
2021/12/24 06:45:36;;;;;;;5.80;4.33;;;;;;;7.56;100.00;99169.38;5041213;28;20213;-79
2021/12/24 06:48:04;;;;;;;4.87;3.70;;;;;;;7.56;100.00;99166.75;5040652;28;20617;-80
2021/12/24 06:50:32;;;;;;;5.07;4.00;;;;;;;7.59;100.00;99160.38;5041409;28;20206;-79
2021/12/24 06:52:58;;;;;;;6.30;4.07;;;;;;;7.62;100.00;99168.09;5044074;28;20245;-79
2021/12/24 06:55:25;;;;;;;4.53;4.00;;;;;;;7.63;100.00;99162.69;5044320;28;20678;-79
2021/12/24 06:57:53;;;;;;;4.97;3.80;;;;;;;7.66;100.00;99173.06;5044381;28;20206;-79
2021/12/24 07:00:22;;;;;;;4.70;4.30;;;;;;;7.69;100.00;99176.44;5045285;28;20673;-79
2021/12/24 07:02:50;;;;;;;3.60;3.30;;;;;;;7.71;100.00;99163.91;5045944;28;20317;-79
2021/12/24 07:05:17;;;;;;;4.97;3.70;;;;;;;7.75;100.00;99173.31;5044830;28;20198;-79
2021/12/24 07:07:44;;;;;;;4.50;3.57;;;;;;;7.74;100.00;99169.81;5045716;28;20209;-80
2021/12/24 07:10:11;;;;;;;3.53;3.23;;;;;;;7.74;100.00;99171.63;5045182;28;20220;-79
2021/12/24 07:12:38;;;;;;;4.07;3.40;;;;;;;7.76;100.00;99182.94;5043696;28;20312;-79
2021/12/24 07:15:07;;;;;;;3.47;3.17;;;;;;;7.79;100.00;99180.06;5041545;28;20660;-79
2021/12/24 07:17:34;;;;;;;3.53;3.13;;;;;;;7.83;100.00;99176.25;5041663;28;20238;-80
2021/12/24 07:20:00;;;;;;;4.37;3.67;;;;;;;7.81;100.00;99184.31;5040830;28;20224;-80
2021/12/24 07:22:27;;;;;;;3.90;3.33;;;;;;;7.85;100.00;99176.97;5039821;28;20233;-79
2021/12/24 07:24:54;;;;;;;3.83;3.20;;;;;;;7.84;100.00;99176.13;5041710;28;20209;-80
2021/12/24 07:27:20;;;;;;;4.50;3.63;;;;;;;7.87;100.00;99175.91;5040749;28;20213;-80
2021/12/24 07:29:47;;;;;;;4.40;3.50;;;;;;;7.88;100.00;99172.25;5041041;28;20206;-79
2021/12/24 07:32:15;;;;;;;4.10;3.37;;;;;;;7.89;100.00;99178.41;5040054;28;20236;-79
2021/12/24 07:34:41;;;;;;;5.37;3.07;;;;;;;7.88;100.00;99177.56;5041947;28;20214;-80
2021/12/24 07:37:08;;;;;;;5.50;4.23;;;;;;;7.91;100.00;99187.09;5040751;28;20206;-80
2021/12/24 07:39:34;;;;;;;6.40;5.80;;;;;;;7.91;100.00;99177.34;5039867;28;20276;-79
2021/12/24 07:42:01;;;;;;;13.50;9.33;;;;;;;7.93;100.00;99187.81;5038542;28;20248;-80
2021/12/24 07:44:29;;;;;;;5.67;5.07;;;;;;;7.95;100.00;99175.31;5039466;28;20218;-79
2021/12/24 07:47:00;;;;;;;7.30;6.40;;;;;;;7.97;100.00;99182.19;5040263;28;20205;-79
2021/12/24 07:49:36;;;;;;;6.67;5.17;;;;;;;7.96;100.00;99171.69;5040198;28;20671;-79
2021/12/24 07:52:08;;;;;;;5.20;4.60;;;;;;;7.98;100.00;99178.56;5040706;28;20237;-79
2021/12/24 07:54:38;;;;;;;7.07;5.27;;;;;;;7.98;100.00;99169.78;5039509;28;20243;-79
2021/12/24 07:57:06;;;;;;;6.70;5.60;;;;;;;7.99;100.00;99171.47;5040073;28;20206;-79
2021/12/24 07:59:35;;;;;;;7.03;5.87;;;;;;;8.00;99.87;99170.50;5040329;28;20217;-79
2021/12/24 08:02:02;;;;;;;7.60;6.23;;;;;;;8.02;100.00;99166.78;5038323;28;20241;-79
2021/12/24 08:04:30;;;;;;;10.43;8.27;;;;;;;8.04;100.00;99168.47;5029542;28;20217;-79
2021/12/24 08:06:56;;;;;;;8.83;6.93;;;;;;;8.06;99.69;99163.91;5019383;28;20203;-79
2021/12/24 08:09:23;;;;;;;11.57;9.37;;;;;;;8.03;99.87;99159.69;5041150;28;20213;-80
2021/12/24 08:11:49;;;;;;;9.00;7.73;;;;;;;8.05;99.24;99173.66;5042867;28;20313;-80
2021/12/24 08:14:16;;;;;;;9.60;7.97;;;;;;;8.08;100.00;99180.50;5056206;28;20206;-79
2021/12/24 08:16:44;;;;;;;8.83;6.93;;;;;;;8.09;99.49;99180.41;5060885;28;20205;-80
2021/12/24 08:19:11;;;;;;;9.60;7.70;;;;;;;8.10;99.15;99176.78;5059219;28;20615;-81
2021/12/24 08:21:39;;;;;;;13.20;7.93;;;;;;;8.14;98.79;99174.75;5061132;28;20316;-79
2021/12/24 08:24:06;;;;;;;11.20;8.10;;;;;;;8.15;98.72;99171.97;5059996;28;20215;-81
2021/12/24 08:26:33;;;;;;;9.60;6.93;;;;;;;8.18;98.67;99177.06;5046329;28;20202;-79
2021/12/24 08:29:00;;;;;;;11.57;7.53;;;;;;;8.20;98.60;99177.78;5041170;28;20220;-80
2021/12/24 08:31:26;;;;;;;12.70;8.17;;;;;;;8.22;98.68;99178.50;5040871;28;20317;-82
2021/12/24 08:33:53;;;;;;;10.10;7.57;;;;;;;8.23;97.89;99193.47;5040475;28;20305;-80
2021/12/24 08:36:19;;;;;;;9.97;7.53;;;;;;;8.24;98.28;99189.81;5039481;28;20277;-79
2021/12/24 08:38:47;;;;;;;10.23;8.47;;;;;;;8.25;97.49;99199.47;5037858;28;20206;-79
2021/12/24 08:41:14;;;;;;;13.43;9.23;;;;;;;8.25;97.29;99191.50;5037550;28;20703;-79
2021/12/24 08:43:41;;;;;;;12.27;8.13;;;;;;;8.26;97.28;99193.22;5038698;28;20206;-80
2021/12/24 08:46:07;;;;;;;10.27;8.17;;;;;;;8.27;96.88;99186.09;5038107;28;20195;-79
2021/12/24 08:48:34;;;;;;;14.23;10.67;;;;;;;8.25;97.14;99191.50;5037902;28;20212;-80
2021/12/24 08:51:00;;;;;;;11.97;8.93;;;;;;;8.25;97.28;99188.03;5039052;28;20202;-80
2021/12/24 08:53:27;;;;;;;12.10;8.73;;;;;;;8.25;96.65;99191.50;5037838;28;20325;-79
2021/12/24 08:55:55;;;;;;;16.33;10.00;;;;;;;8.27;97.39;99197.53;5039110;28;20203;-79
2021/12/24 08:58:21;;;;;;;13.23;10.30;;;;;;;8.27;96.54;99194.91;5040081;28;20564;-80
2021/12/24 09:00:48;;;;;;;12.27;9.00;;;;;;;8.28;96.60;99196.59;5043873;28;20237;-80
2021/12/24 09:03:15;;;;;;;14.30;9.20;;;;;;;8.29;96.96;99181.53;5044727;28;20226;-81
2021/12/24 09:05:42;;;;;;;14.87;10.83;;;;;;;8.32;96.19;99200.72;5044617;28;20206;-80
2021/12/24 09:08:08;;;;;;;12.43;8.43;;;;;;;8.35;96.74;99199.66;5042288;28;20237;-80
2021/12/24 09:10:35;;;;;;;15.40;11.70;;;;;;;8.34;95.65;99196.16;5042420;28;20217;-80
2021/12/24 09:13:03;;;;;;;16.30;11.03;;;;;;;8.38;95.90;99195.94;5041839;28;20232;-80
2021/12/24 09:15:33;;;;;;;17.17;11.93;;;;;;;8.36;95.53;99182.78;5040304;28;20214;-80
2021/12/24 09:18:01;;;;;;;12.37;9.43;;;;;;;8.39;95.41;99197.63;5039973;28;20240;-80
2021/12/24 09:20:35;;;;;;;16.07;11.33;;;;;;;8.39;96.50;99171.94;5042800;28;20229;-80
2021/12/24 09:23:02;;;;;;;18.70;12.00;;;;;;;8.37;95.70;99179.16;5043038;28;20262;-80
2021/12/24 09:25:43;;;;;;;22.30;12.33;;;;;;;8.42;95.98;99189.44;5041211;28;20213;-81
2021/12/24 09:28:11;;;;;;;17.70;13.00;;;;;;;8.43;95.64;99188.44;5041115;28;20198;-80
2021/12/24 09:30:38;;;;;;;15.70;11.93;;;;;;;8.41;95.61;99187.75;5042429;28;20198;-81
2021/12/24 09:33:05;;;;;;;16.27;10.57;;;;;;;8.42;95.14;99186.78;5042453;28;20286;-81
2021/12/24 09:35:32;;;;;;;19.10;11.83;;;;;;;8.42;95.61;99186.78;5043318;28;20210;-81
2021/12/24 09:38:00;;;;;;;19.17;11.80;;;;;;;8.42;95.15;99190.25;5042394;28;20214;-81
2021/12/24 09:40:27;;;;;;;17.50;11.77;;;;;;;8.46;95.98;99193.50;5042286;28;20233;-81
2021/12/24 09:42:54;;;;;;;14.83;10.57;;;;;;;8.46;95.39;99188.19;5042415;28;20312;-80
2021/12/24 09:45:22;;;;;;;14.17;10.60;;;;;;;8.46;95.34;99182.91;5042532;28;20293;-81
2021/12/24 09:47:49;;;;;;;13.00;9.27;;;;;;;8.46;95.29;99183.75;5041707;28;20292;-81
2021/12/24 09:50:19;;;;;;;12.87;8.90;;;;;;;8.48;95.63;99180.97;5043023;28;20533;-81
2021/12/24 09:52:46;;;;;;;11.20;9.00;;;;;;;8.49;95.05;99180.00;5044892;28;20218;-81
2021/12/24 09:55:15;;;;;;;20.50;13.00;;;;;;;8.48;95.41;99189.78;5043083;28;20771;-78
2021/12/24 09:57:43;;;;;;;19.73;14.93;;;;;;;8.51;95.71;99199.31;5042727;28;20297;-79
2021/12/24 10:00:10;;;;;;;13.03;9.43;;;;;;;8.52;95.82;99198.34;5042519;28;20199;-79
2021/12/24 10:02:44;;;;;;;11.33;9.17;;;;;;;8.55;95.19;99193.66;5042206;28;20313;-80
2021/12/24 10:05:29;;;;;;;11.60;9.00;;;;;;;8.57;94.92;99185.56;5042191;28;20187;-80
2021/12/24 10:08:01;;;;;;;13.57;10.70;;;;;;;8.59;95.39;99184.50;5042014;28;20225;-80
2021/12/24 10:10:30;;;;;;;13.33;10.93;;;;;;;8.61;94.68;99174.56;5042633;28;20206;-80
2021/12/24 10:12:58;;;;;;;11.47;8.50;;;;;;;8.61;94.87;99185.19;5041546;28;20281;-80
2021/12/24 10:15:25;;;;;;;11.80;8.50;;;;;;;8.63;94.94;99187.72;5041574;28;20209;-80
2021/12/24 10:17:53;;;;;;;10.90;7.20;;;;;;;8.64;95.30;99176.16;5040866;28;20214;-79
2021/12/24 10:20:21;;;;;;;8.23;6.43;;;;;;;8.64;94.58;99189.41;5041108;28;20325;-79
2021/12/24 10:22:50;;;;;;;11.13;7.53;;;;;;;8.60;94.56;99185.31;5041607;28;20218;-78
2021/12/24 10:25:24;;;;;;;10.10;6.80;;;;;;;8.63;94.38;99188.56;5040630;28;20653;-79
2021/12/24 10:27:50;;;;;;;9.67;6.53;;;;;;;8.62;94.47;99183.38;5040152;28;20214;-79
2021/12/24 10:30:21;;;;;;;8.20;6.77;;;;;;;8.63;94.43;99195.69;5041559;28;20217;-82
2021/12/24 10:32:48;;;;;;;9.83;7.13;;;;;;;8.63;93.98;99193.03;5042412;28;20222;-80
2021/12/24 10:35:24;;;;;;;12.27;7.50;;;;;;;8.65;94.49;99199.06;5041184;28;20656;-79
2021/12/24 10:38:10;;;;;;;10.07;7.00;;;;;;;8.65;94.63;99186.66;5041815;28;20210;-81
2021/12/24 10:40:36;;;;;;;10.07;6.63;;;;;;;8.66;93.69;99191.00;5041839;28;20225;-80
2021/12/24 10:43:03;;;;;;;8.37;6.67;;;;;;;8.69;93.96;99189.91;5040254;28;20333;-81
2021/12/24 10:45:32;;;;;;;7.83;6.17;;;;;;;8.69;93.83;99193.41;5040721;28;20300;-81
2021/12/24 10:47:59;;;;;;;11.03;6.30;;;;;;;8.72;93.88;99191.47;5040672;28;20665;-79
2021/12/24 10:50:31;;;;;;;8.07;6.27;;;;;;;8.72;94.01;99192.31;5039716;28;20308;-80
2021/12/24 10:53:14;;;;;;;9.10;6.37;;;;;;;8.73;93.43;99191.38;5039762;28;20461;-81
2021/12/24 10:55:46;;;;;;;9.43;6.93;;;;;;;8.75;93.62;99186.78;5038748;28;20199;-81
2021/12/24 10:58:16;;;;;;;10.57;6.70;;;;;;;8.76;93.32;99187.63;5038364;28;20221;-81
2021/12/24 11:00:48;;;;;;;11.03;6.90;;;;;;;8.76;93.08;99185.81;5038797;28;20226;-81
2021/12/24 11:03:19;;;;;;;11.83;7.83;;;;;;;8.78;93.91;99183.03;5038788;28;20234;-81
2021/12/24 11:05:49;;;;;;;10.93;6.50;;;;;;;8.79;93.12;99182.06;5043409;28;20186;-80
2021/12/24 11:08:19;;;;;;;7.47;6.20;;;;;;;8.82;93.52;99182.66;5039914;28;20281;-79
2021/12/24 11:10:47;;;;;;;8.20;5.80;;;;;;;8.81;93.51;99194.25;5038659;28;20233;-80
2021/12/24 11:13:16;;;;;;;8.60;5.67;;;;;;;8.80;93.05;99189.91;5038333;28;20230;-79
2021/12/24 11:15:46;;;;;;;9.40;6.03;;;;;;;8.80;92.86;99186.41;5043165;28;20834;-79
2021/12/24 11:18:19;;;;;;;9.37;5.27;;;;;;;8.81;92.66;99193.41;5040788;28;20206;-79
2021/12/24 11:20:52;;;;;;;11.27;6.97;;;;;;;8.80;92.66;99184.59;5039376;28;20210;-78
2021/12/24 11:23:20;;;;;;;8.17;5.97;;;;;;;8.83;92.95;99187.00;5039414;28;20233;-79
2021/12/24 11:25:50;;;;;;;10.70;6.63;;;;;;;8.83;92.75;99194.97;5040183;28;20289;-79
2021/12/24 11:28:18;;;;;;;8.47;5.40;;;;;;;8.84;92.75;99187.84;5039703;28;20266;-79
2021/12/24 11:30:49;;;;;;;7.57;5.60;;;;;;;8.84;92.64;99187.84;5040351;28;20202;-79
2021/12/24 11:33:19;;;;;;;11.73;6.60;;;;;;;8.83;92.43;99179.03;5040213;28;20254;-79
2021/12/24 11:35:49;;;;;;;9.47;6.40;;;;;;;8.84;92.27;99182.53;5041107;28;20220;-78
2021/12/24 11:38:18;;;;;;;6.70;5.77;;;;;;;8.83;92.00;99173.72;5042920;28;20206;-79
2021/12/24 11:40:47;;;;;;;6.33;5.37;;;;;;;8.82;91.90;99184.47;5044134;28;20206;-80
2021/12/24 11:43:14;;;;;;;8.23;5.53;;;;;;;8.84;91.04;99187.84;5035709;28;20322;-82
2021/12/24 11:45:41;;;;;;;9.53;5.70;;;;;;;8.81;91.16;99188.09;5026611;28;20290;-79
2021/12/24 11:48:08;;;;;;;5.80;4.63;;;;;;;8.79;91.53;99185.56;5024212;28;20213;-80
2021/12/24 11:50:36;;;;;;;8.03;5.50;;;;;;;8.79;90.88;99190.00;5024237;28;20237;-80
2021/12/24 11:53:08;;;;;;;8.80;6.27;;;;;;;8.78;90.98;99183.84;5027522;28;20229;-80
2021/12/24 11:55:37;;;;;;;5.53;4.60;;;;;;;8.79;90.42;99180.25;5023800;28;20191;-80
2021/12/24 11:58:06;;;;;;;7.37;5.70;;;;;;;8.76;90.87;99185.81;5024313;28;20214;-80
2021/12/24 12:00:37;;;;;;;6.97;5.87;;;;;;;8.75;90.17;99170.84;5023122;28;20230;-81
2021/12/24 12:03:04;;;;;;;10.33;6.10;;;;;;;8.74;89.99;99177.13;5024182;28;20597;-80
2021/12/24 12:05:33;;;;;;;11.37;5.40;;;;;;;8.73;89.94;99177.25;5022085;28;20215;-81
2021/12/24 12:08:33;;;;;;;5.67;4.90;;;;;;;8.70;89.99;99184.47;5042180;28;20665;-81
2021/12/24 12:11:01;;;;;;;7.37;5.27;;;;;;;8.70;90.42;99183.63;5014269;28;20230;-79
2021/12/24 12:13:46;;;;;;;7.63;5.27;;;;;;;8.67;90.10;99181.22;5019191;28;20235;-79
2021/12/24 12:16:14;;;;;;;7.67;4.90;;;;;;;8.67;90.04;99182.06;5021802;28;20255;-80
2021/12/24 12:18:49;;;;;;;7.87;4.83;;;;;;;8.67;90.04;99181.22;5024100;28;20219;-80
2021/12/24 12:21:22;;;;;;;6.13;4.20;;;;;;;8.64;89.82;99192.91;5025448;28;20207;-80
2021/12/24 12:26:39;;;;;;;6.07;4.67;;;;;;;8.65;89.87;99175.19;5022821;28;20207;-80
2021/12/24 12:29:33;;;;;;;5.60;4.57;;;;;;;8.66;90.33;99182.19;5024204;28;20266;-81
2021/12/24 12:32:20;;;;;;;7.07;4.87;;;;;;;8.66;90.24;99163.59;5037153;28;20241;-80
2021/12/24 12:34:52;;;;;;;9.40;5.00;;;;;;;8.65;90.06;99168.06;5063967;28;20264;-80
2021/12/24 12:37:21;;;;;;;6.37;4.60;;;;;;;8.63;89.67;99170.00;5062206;28;20216;-80
2021/12/24 12:39:52;;;;;;;4.87;4.20;;;;;;;8.62;90.02;99188.69;5062926;28;20677;-80
2021/12/24 12:42:19;;;;;;;3.67;2.17;;;;;;;8.63;89.78;99214.25;5063620;28;20229;-80
2021/12/24 12:44:49;;;;;;;0.67;0.40;;;;;;;8.53;88.56;99223.91;5053152;28;20217;-80
2021/12/24 12:47:17;;;;;;;1.00;0.20;;;;;;;8.31;86.77;99209.63;5033286;28;20211;-80
2021/12/24 12:49:45;;;;;;;0.30;0.30;;;;;;;8.11;85.56;99218.25;5040155;28;20278;-81
2021/12/24 12:52:23;;;;;;;0.63;0.30;;;;;;;7.85;85.75;99235.28;5033750;28;20249;-81
2021/12/24 12:54:55;;;;;;;0.73;0.30;;;;;;;7.63;84.58;99257.22;5037448;28;20297;-83
2021/12/24 12:57:24;;;;;;;1.90;0.33;;;;;;;7.44;85.03;99256.88;5028747;28;20286;-82